Data for 01/12/2010

Time Sea-Level Adjusted Pressure Absolute Pressure Temperature Relative Humidity Dew Point   
(mb) (inHg) (mb) (inHg) (C) (F) (%) (C) (F)
00:05 1020 30.12 850 25.1 0.5 32.9 60 -6.3 20.7
00:10 1020 30.12 849 25.07 1.2 34.2 59 -6 21.2
00:15 1020 30.12 849 25.07 1.3 34.3 60 -5.7 21.7
00:20 1020 30.12 850 25.1 0.8 33.4 61 -5.9 21.4
00:25 1020 30.12 850 25.1 0.3 32.5 63 -6 21.2
00:30 1020 30.12 849 25.07 0.9 33.5 60 -6 21.2
00:35 1020 30.12 849 25.07 1.3 34.4 59 -5.9 21.4
00:40 1020 30.12 849 25.07 1.1 34.1 59 -6 21.1
00:45 1020 30.12 849 25.07 1 33.8 59 -6.1 21.1
00:50 1020 30.12 849 25.07 0.6 33.1 63 -5.7 21.8
00:55 1020 30.12 849 25.07 0.6 33.1 61 -6.1 21
01:00 1020 30.12 849 25.07 0.5 32.9 62 -6 21.1
01:05 1020 30.12 849 25.07 -0.1 31.8 63 -6.3 20.6
01:10 1020 30.12 849 25.07 -0.2 31.7 63 -6.5 20.4
01:15 1020 30.12 849 25.07 -0.1 31.8 61 -6.7 19.9
01:20 1020 30.12 849 25.07 -0.1 31.8 61 -6.7 20
01:25 1019 30.09 849 25.07 -0.4 31.3 64 -6.4 20.5
01:30 1019 30.09 849 25.07 -0.6 31 64 -6.6 20
01:35 1020 30.12 849 25.07 0.3 32.5 59 -6.8 19.7
01:40 1020 30.12 849 25.07 0.9 33.7 57 -6.6 20.1
01:45 1020 30.12 849 25.07 0.8 33.5 55 -7.1 19.2
01:50 1020 30.12 849 25.07 0.9 33.5 57 -6.8 19.8
01:55 1019 30.09 849 25.07 1 33.8 58 -6.3 20.6
02:00 1019 30.09 849 25.07 1.5 34.7 55 -6.5 20.2
02:05 1019 30.09 849 25.07 1.3 34.3 56 -6.5 20.2
02:10 1019 30.09 849 25.07 0.7 33.2 58 -6.7 20
02:15 1019 30.09 849 25.07 0.7 33.3 60 -6.1 20.9
02:20 1019 30.09 849 25.07 0.1 32.2 59 -6.9 19.7
02:25 1019 30.09 849 25.07 0.2 32.3 61 -6.4 20.5
02:30 1019 30.09 849 25.07 -0.4 31.2 62 -6.8 19.8
02:35 1019 30.09 849 25.07 0.1 32.1 60 -6.8 19.8
02:40 1019 30.09 849 25.07 0.1 32.3 60 -6.6 20.1
02:45 1019 30.09 849 25.07 0.3 32.6 59 -6.8 19.8
02:50 1019 30.09 848 25.04 0.4 32.6 59 -6.8 19.8
02:55 1019 30.09 848 25.04 0.2 32.4 59 -6.9 19.6
03:00 1019 30.09 848 25.04 -0.1 31.8 58 -7.3 18.8
03:05 1019 30.09 848 25.04 -0.2 31.7 59 -7.2 19.1
03:10 1019 30.09 848 25.04 -0.4 31.2 59 -7.5 18.5
03:15 1019 30.09 848 25.04 0.2 32.4 55 -7.8 18
03:20 1019 30.09 848 25.04 0.2 32.4 54 -8 17.6
03:25 1019 30.09 848 25.04 0.3 32.6 54 -8 17.6
03:30 1019 30.09 848 25.04 -0.1 31.9 54 -8.3 17.1
03:35 1019 30.09 848 25.04 -0 32 52 -8.7 16.3
03:40 1018 30.06 848 25.04 0.7 33.2 50 -8.7 16.4
03:45 1018 30.06 848 25.04 1 33.9 47 -9 15.7
03:50 1018 30.06 848 25.04 1.8 35.3 43 -9.4 15.1
03:55 1018 30.06 848 25.04 1.8 35.2 46 -8.7 16.3
04:00 1018 30.06 848 25.04 1.8 35.3 43 -9.5 14.9
04:05 1018 30.06 847 25.01 2.1 35.8 43 -9.1 15.6
04:10 1018 30.06 847 25.01 2.4 36.4 40 -9.7 14.6
04:15 1018 30.06 847 25.01 2.4 36.4 41 -9.4 15
04:20 1018 30.06 847 25.01 2.2 36 40 -10.1 13.9
04:25 1018 30.06 847 25.01 2.9 37.3 38 -10.2 13.6
04:30 1018 30.06 847 25.01 3 37.4 38 -10 14
04:35 1018 30.06 847 25.01 3.1 37.6 38 -10 14
04:40 1018 30.06 847 25.01 3.7 38.7 37 -9.7 14.6
04:45 1018 30.06 847 25.01 2.7 36.9 43 -8.7 16.4
04:50 1018 30.06 847 25.01 1.1 34 47 -8.9 15.9
04:55 1018 30.06 847 25.01 -0.1 31.8 56 -7.8 17.9
05:00 1018 30.06 847 25.01 -1.5 29.3 59 -8.4 16.8
05:05 1018 30.06 847 25.01 -2.3 27.8 62 -8.7 16.4
05:10 1018 30.06 847 25.01 -2.7 27.1 62 -8.9 16
05:15 1018 30.06 847 25.01 -2.9 26.7 64 -8.9 16
05:20 1018 30.06 848 25.04 -3.4 25.9 65 -9 15.8
05:25 1018 30.06 847 25.01 -3.6 25.6 66 -9.1 15.6
05:30 1018 30.06 848 25.04 -3.4 25.9 68 -8.4 16.9
05:35 1018 30.06 848 25.04 -3 26.6 64 -8.8 16.2
05:40 1018 30.06 848 25.04 -3.1 26.4 65 -8.8 16.2
05:45 1018 30.06 848 25.04 -3.4 25.9 66 -8.9 15.9
05:50 1018 30.06 848 25.04 -3.6 25.6 65 -9.3 15.3
05:55 1018 30.06 848 25.04 -3.4 25.9 64 -9.2 15.5
06:00 1018 30.06 848 25.04 -3 26.6 63 -9.1 15.5
06:05 1018 30.06 848 25.04 -3.4 26 64 -9.2 15.4
06:10 1018 30.06 848 25.04 -2.9 26.9 63 -9 15.8
06:15 1018 30.06 848 25.04 -3.1 26.5 64 -8.9 16.1
06:20 1018 30.06 848 25.04 -2.8 26.9 65 -8.5 16.8
06:25 1019 30.09 848 25.04 -3.1 26.4 65 -8.8 16.2
06:30 1019 30.09 848 25.04 -1.9 28.5 58 -9.1 15.5
06:35 1019 30.09 848 25.04 -1.9 28.5 61 -8.6 16.6
06:40 1019 30.09 848 25.04 -2 28.5 60 -8.8 16.2
06:45 1019 30.09 848 25.04 -1.8 28.7 60 -8.7 16.4
06:50 1019 30.09 848 25.04 -2.8 27 63 -9 15.9
06:55 1019 30.09 848 25.04 -3.4 25.9 64 -9.2 15.5
07:00 1019 30.09 848 25.04 -4 24.8 68 -9.2 15.5
07:05 1019 30.09 848 25.04 -2.8 26.9 65 -8.5 16.8
07:10 1019 30.09 848 25.04 -2.8 27 67 -8 17.5
07:15 1019 30.09 848 25.04 -2.6 27.4 66 -8 17.7
07:20 1019 30.09 848 25.04 -2.5 27.6 67 -7.8 18
07:25 1018 30.06 848 25.04 -2.2 28 66 -7.8 17.9
07:30 1018 30.06 848 25.04 -1.8 28.8 64 -7.8 18
07:35 1018 30.06 848 25.04 -1.8 28.8 63 -7.8 17.9
07:40 1018 30.06 848 25.04 -1.9 28.5 64 -7.8 17.9
07:45 1018 30.06 848 25.04 -1.7 28.9 63 -7.8 17.9
07:50 1018 30.06 848 25.04 -1.2 29.9 61 -7.7 18.2
07:55 1018 30.06 847 25.01 -1.7 28.9 64 -7.7 18.1
08:00 1018 30.06 847 25.01 -1.8 28.7 62 -8.1 17.3
08:05 1018 30.06 847 25.01 -1.4 29.5 60 -8.1 17.3
08:10 1018 30.06 847 25.01 -1.1 30 58 -8.3 17.1
08:15 1018 30.06 847 25.01 -0.8 30.6 58 -8.1 17.5
08:20 1018 30.06 847 25.01 -0.7 30.7 58 -8.1 17.4
08:25 1018 30.06 847 25.01 -0.2 31.7 54 -8.3 17.1
08:30 1018 30.06 847 25.01 0.4 32.7 54 -7.9 17.8
08:35 1018 30.06 847 25.01 0.2 32.4 54 -8 17.6
08:40 1018 30.06 847 25.01 0 32.1 56 -7.8 18
08:45 1018 30.06 847 25.01 -0.1 31.7 55 -8.2 17.3
08:50 1018 30.06 847 25.01 0.3 32.6 54 -7.8 17.9
08:55 1018 30.06 847 25.01 -0.3 31.5 57 -7.8 18
09:00 1018 30.06 847 25.01 -0.7 30.7 56 -8.4 16.9
09:05 1018 30.06 847 25.01 -0.4 31.2 54 -8.6 16.5
09:10 1018 30.06 847 25.01 0.5 33 50 -8.8 16.2
09:15 1018 30.06 847 25.01 1.1 33.9 51 -8 17.7
09:20 1018 30.06 847 25.01 1.1 33.9 51 -8 17.6
09:25 1018 30.06 847 25.01 1.1 33.9 52 -7.7 18.2
09:30 1018 30.06 847 25.01 0.7 33.3 54 -7.6 18.3
09:35 1018 30.06 847 25.01 0.6 33.1 53 -7.8 17.9
09:40 1018 30.06 847 25.01 1.1 33.9 49 -8.5 16.6
09:45 1018 30.06 847 25.01 1.9 35.3 49 -7.9 17.8
09:50 1018 30.06 847 25.01 1.7 35 47 -8.6 16.6
09:55 1018 30.06 847 25.01 2.1 35.8 47 -8.2 17.3
10:00 1018 30.06 847 25.01 2.1 35.8 48 -7.9 17.7
10:05 1018 30.06 847 25.01 1.4 34.5 51 -7.6 18.3
10:10 1018 30.06 847 25.01 0.5 32.9 53 -7.9 17.8
10:15 1018 30.06 847 25.01 0.3 32.5 52 -8.4 16.9
10:20 1018 30.06 847 25.01 0.7 33.2 49 -8.8 16.2
10:25 1018 30.06 847 25.01 1.3 34.3 48 -8.7 16.4
10:30 1018 30.06 847 25.01 2 35.5 44 -8.9 15.9
10:35 1017 30.03 846 24.98 2.3 36.1 46 -8.3 17.1
10:40 1017 30.03 846 24.98 2.3 36.2 46 -8.3 17.1
10:45 1017 30.03 846 24.98 2.2 36 47 -8.1 17.5
10:50 1017 30.03 846 24.98 2.2 36 45 -8.5 16.7
10:55 1016 30 846 24.98 2.7 36.8 42 -9 15.9
11:00 1016 30 846 24.98 3.4 38.1 41 -8.7 16.3
11:05 1016 30 846 24.98 3.8 38.8 39 -8.8 16.1
11:10 1016 30 845 24.95 4.2 39.6 36 -9.6 14.8
11:15 1016 30 845 24.95 5 41 36 -8.8 16.2
11:20 1016 30 845 24.95 5.3 41.5 34 -9.4 15
11:25 1016 30 845 24.95 5.6 42.1 33 -9.6 14.8
11:30 1016 30 845 24.95 6 42.8 33 -8.9 15.9
11:35 1016 30 845 24.95 6.2 43.1 37 -7.3 18.8
11:40 1016 30 845 24.95 6.3 43.3 32 -9.3 15.2
11:45 1016 30 845 24.95 6.4 43.4 41 -5.9 21.4
11:50 1015 29.97 845 24.95 4 39.2 49 -5.7 21.7
11:55 1015 29.97 844 24.92 4.5 40.1 39 -8.3 17
12:00 1015 29.97 844 24.92 5.5 42 37 -7.9 17.7
12:05 1015 29.97 844 24.92 6.1 43 32 -9.2 15.5
12:10 1015 29.97 844 24.92 6.8 44.2 31 -9.2 15.4
12:15 1015 29.97 844 24.92 7.3 45.2 31 -8.6 16.6
12:20 1014 29.94 843 24.89 7.4 45.4 31 -8.5 16.6
12:25 1014 29.94 843 24.89 7.6 45.6 32 -8.1 17.5
12:30 1014 29.94 843 24.89 7.8 46 31 -8.3 17
12:35 1014 29.94 843 24.89 8.2 46.8 31 -8.1 17.4
12:40 1014 29.94 843 24.89 8.4 47.2 31 -7.8 18
12:45 1014 29.94 843 24.89 8.7 47.7 31 -7.6 18.3
12:50 1014 29.94 843 24.89 9 48.3 30 -7.5 18.4
12:55 1014 29.94 843 24.89 9.3 48.8 30 -7.5 18.5
13:00 1014 29.94 843 24.89 9.8 49.6 29 -7.4 18.6
13:05 1013 29.91 843 24.89 10.1 50.1 29 -7.2 19
13:10 1013 29.91 843 24.89 9.9 49.8 29 -7.3 18.9
13:15 1014 29.94 843 24.89 8.6 47.4 42 -3.7 25.4
13:20 1014 29.94 843 24.89 5.8 42.5 49 -4 24.8
13:25 1014 29.94 843 24.89 4.2 39.5 52 -4.9 23.2
13:30 1014 29.94 843 24.89 3.8 38.9 52 -5.3 22.5
13:35 1014 29.94 843 24.89 3.3 37.9 54 -5.2 22.6
13:40 1014 29.94 843 24.89 2.9 37.2 56 -5 23
13:45 1014 29.94 843 24.89 2.1 35.8 57 -5.5 22.2
13:50 1014 29.94 843 24.89 2 35.7 59 -5.3 22.5
13:55 1014 29.94 843 24.89 1.8 35.2 54 -6.5 20.3
14:00 1014 29.94 843 24.89 2.4 36.2 52 -6.6 20.2
14:05 1014 29.94 843 24.89 3.1 37.6 50 -6.3 20.7
14:10 1014 29.94 843 24.89 3.9 39 46 -6.6 20
14:15 1014 29.94 843 24.89 5 41.1 43 -6.6 20.2
14:20 1014 29.94 843 24.89 5.2 41.4 42 -6.8 19.8
14:25 1014 29.94 843 24.89 5.6 42 42 -6.3 20.6
14:30 1014 29.94 843 24.89 5.2 41.4 41 -7 19.4
14:35 1014 29.94 843 24.89 5.1 41.2 43 -6.3 20.6
14:40 1014 29.94 843 24.89 5.4 41.7 41 -6.9 19.6
14:45 1014 29.94 843 24.89 5.5 41.9 42 -6.3 20.6
14:50 1014 29.94 843 24.89 5.8 42.5 40 -6.9 19.7
14:55 1014 29.94 843 24.89 6 42.8 39 -6.9 19.6
15:00 1014 29.94 843 24.89 7 44.6 37 -6.5 20.3
15:05 1014 29.94 843 24.89 6.8 44.2 38 -6.7 20
15:10 1014 29.94 843 24.89 7 44.5 37 -6.8 19.7
15:15 1014 29.94 843 24.89 7.7 45.8 33 -7.6 18.4
15:20 1014 29.94 843 24.89 8 46.3 34 -6.9 19.6
15:25 1014 29.94 843 24.89 8 46.5 34 -7.1 19.3
15:30 1014 29.94 843 24.89 8.5 47.3 32 -7.1 19.2
15:35 1014 29.94 843 24.89 8.2 46.7 33 -7.2 19.1
15:40 1014 29.94 843 24.89 8.4 47.1 32 -7.3 18.8
15:45 1014 29.94 843 24.89 8.4 47.1 34 -6.6 20
15:50 1014 29.94 843 24.89 8.2 46.7 34 -6.9 19.6
15:55 1014 29.94 843 24.89 8.3 46.9 32 -7.4 18.7
16:00 1014 29.94 843 24.89 8.3 47 33 -7 19.4
16:05 1014 29.94 843 24.89 8.3 47 35 -6.1 21.1
16:10 1014 29.94 843 24.89 8.4 47.2 42 -3.7 25.3
16:15 1014 29.94 843 24.89 8.3 47 36 -5.9 21.4
16:20 1014 29.94 843 24.89 8.3 47 37 -5.5 22.1
16:25 1014 29.94 843 24.89 7.7 45.9 37 -6.1 21
16:30 1014 29.94 843 24.89 7.8 46.1 38 -5.7 21.7
16:35 1014 29.94 843 24.89 7.8 46 39 -5.2 22.6
16:40 1014 29.94 843 24.89 7.7 45.9 40 -5.1 22.9
16:45 1014 29.94 843 24.89 8.1 46.5 40 -4.9 23.2
16:50 1014 29.94 843 24.89 8.3 47 40 -4.3 24.2
16:55 1014 29.94 843 24.89 8.4 47 41 -4.1 24.7
17:00 1014 29.94 843 24.89 8.4 47.1 41 -4 24.9
17:05 1014 29.94 843 24.89 8.1 46.7 41 -4.4 24.1
17:10 1014 29.94 843 24.89 8.4 47.1 38 -5 23.1
17:15 1014 29.94 843 24.89 8.9 48 38 -4.6 23.8
17:20 1014 29.94 843 24.89 8.6 47.5 40 -4.1 24.6
17:25 1014 29.94 843 24.89 8.1 46.6 44 -3.5 25.7
17:30 1014 29.94 843 24.89 7.6 45.8 44 -3.8 25.2
17:35 1014 29.94 843 24.89 7.5 45.5 45 -3.5 25.7
17:40 1014 29.94 843 24.89 7.3 45.2 44 -4.1 24.5
17:45 1014 29.94 843 24.89 7.4 45.4 43 -4.5 24
17:50 1014 29.94 843 24.89 7.4 45.3 43 -4.3 24.3
17:55 1014 29.94 843 24.89 7.9 46.3 41 -4.5 23.9
18:00 1014 29.94 843 24.89 7.7 45.9 41 -4.8 23.3
18:05 1014 29.94 843 24.89 8 46.4 41 -4.4 24.1
18:10 1014 29.94 843 24.89 8.2 46.7 40 -4.7 23.6
18:15 1014 29.94 843 24.89 8 46.3 40 -4.9 23.2
18:20 1014 29.94 843 24.89 7.9 46.3 40 -4.8 23.3
18:25 1014 29.94 843 24.89 7.4 45.2 43 -4.5 23.8
18:30 1014 29.94 843 24.89 7.2 45 42 -4.7 23.5
18:35 1014 29.94 843 24.89 7 44.7 42 -5.1 22.8
18:40 1014 29.94 843 24.89 7.6 45.6 39 -5.4 22.2
18:45 1014 29.94 843 24.89 7.2 44.9 42 -5 23.1
18:50 1014 29.94 843 24.89 7.1 44.7 42 -5 23
18:55 1014 29.94 843 24.89 7 44.7 43 -4.7 23.6
19:00 1014 29.94 843 24.89 6.5 43.7 45 -4.6 23.8
19:05 1014 29.94 843 24.89 6.6 43.8 43 -5.1 22.9
19:10 1014 29.94 843 24.89 6.8 44.3 41 -5.4 22.3
19:15 1014 29.94 843 24.89 7.3 45.2 39 -5.6 21.8
19:20 1014 29.94 843 24.89 7.7 45.8 39 -5.5 22
19:25 1014 29.94 843 24.89 7.3 45.2 39 -5.8 21.6
19:30 1013 29.91 843 24.89 7.3 45.2 38 -6 21.2
19:35 1013 29.91 843 24.89 7.2 45 39 -5.8 21.6
19:40 1013 29.91 843 24.89 6.7 44.1 43 -5 23
19:45 1014 29.94 843 24.89 6 42.7 46 -4.7 23.5
19:50 1014 29.94 843 24.89 5.5 42 46 -5.2 22.7
19:55 1014 29.94 843 24.89 5.3 41.5 46 -5.3 22.4
20:00 1013 29.91 843 24.89 5.7 42.2 45 -5.3 22.5
20:05 1013 29.91 843 24.89 6.5 43.6 40 -6.1 21.1
20:10 1013 29.91 843 24.89 7.4 45.2 37 -6.3 20.7
20:15 1014 29.94 843 24.89 7.8 46.1 37 -5.8 21.5
20:20 1014 29.94 843 24.89 8 46.4 36 -6.2 20.8
20:25 1014 29.94 843 24.89 8.1 46.6 35 -6.6 20.2
20:30 1014 29.94 843 24.89 8.2 46.8 36 -6.1 21
20:35 1014 29.94 843 24.89 8.2 46.7 36 -5.9 21.4
20:40 1014 29.94 843 24.89 7.9 46.3 36 -6.1 21
20:45 1014 29.94 843 24.89 8 46.3 36 -6.3 20.7
20:50 1014 29.94 843 24.89 7.8 46.1 37 -5.8 21.5
20:55 1014 29.94 843 24.89 7.8 46 37 -6 21.2
21:00 1014 29.94 843 24.89 7.8 46.1 38 -5.4 22.2
21:05 1014 29.94 843 24.89 7.8 46 38 -5.6 21.8
21:10 1014 29.94 843 24.89 7.8 46.1 40 -5 23
21:15 1014 29.94 843 24.89 7.7 45.8 39 -5.3 22.5
21:20 1013 29.91 843 24.89 7.6 45.6 41 -4.7 23.6
21:25 1014 29.94 843 24.89 7.3 45.1 41 -5 23
21:30 1014 29.94 843 24.89 7.2 45 42 -5 23.1
21:35 1014 29.94 843 24.89 7.2 45 43 -4.6 23.7
21:40 1014 29.94 843 24.89 6.8 44.2 46 -4 24.7
21:45 1014 29.94 843 24.89 6.6 43.9 46 -4.2 24.4
21:50 1014 29.94 843 24.89 6.5 43.7 47 -3.9 25
21:55 1014 29.94 843 24.89 6.4 43.5 48 -3.9 24.9
22:00 1014 29.94 843 24.89 6.6 43.8 47 -4 24.8
22:05 1014 29.94 843 24.89 6.5 43.8 46 -4.2 24.5
22:10 1014 29.94 843 24.89 6.7 44.1 46 -4.1 24.7
22:15 1014 29.94 843 24.89 6.7 44.1 47 -3.9 25
22:20 1014 29.94 843 24.89 6.8 44.2 47 -3.8 25.2
22:25 1014 29.94 843 24.89 6.7 44 48 -3.5 25.6
22:30 1014 29.94 843 24.89 6.6 43.9 48 -3.5 25.7
22:35 1014 29.94 843 24.89 6.7 44.1 49 -3.3 26
22:40 1014 29.94 843 24.89 6.8 44.2 48 -3.5 25.7
22:45 1014 29.94 843 24.89 6.7 44 49 -3.2 26.2
22:50 1014 29.94 843 24.89 6.6 43.8 48 -3.7 25.3
22:55 1014 29.94 843 24.89 6.9 44.4 47 -3.6 25.4
23:00 1014 29.94 843 24.89 6.7 44 49 -3.3 26.1
23:05 1014 29.94 843 24.89 6.6 43.9 50 -3.1 26.3
23:10 1014 29.94 843 24.89 6.2 43.2 50 -3.5 25.6
23:15 1014 29.94 843 24.89 6.4 43.5 49 -3.5 25.8
23:20 1014 29.94 843 24.89 6.4 43.6 49 -3.5 25.7
23:25 1014 29.94 844 24.92 6.5 43.7 49 -3.4 25.8
23:30 1015 29.97 844 24.92 6.4 43.5 52 -2.7 27.1
23:35 1015 29.97 844 24.92 5.9 42.6 53 -3 26.7
23:40 1014 29.94 844 24.92 5.8 42.4 54 -2.9 26.8
23:45 1015 29.97 844 24.92 5.9 42.6 53 -3.1 26.5
23:50 1015 29.97 844 24.92 6 42.7 52 -3.1 26.4
23:55 1015 29.97 844 24.92 6.1 43.1 51 -3.2 26.2
24:00 1015 29.97 844 24.92 6.3 43.4 50 -3.4 26